sensor_id;sensor_type;location;lat;lon;timestamp;P1;durP1;ratioP1;P2;durP2;ratioP2
14209;SDS011;7188;56.070;12.698;2022-11-14T00:02:16;0.83;;;0.80;;
14209;SDS011;7188;56.070;12.698;2022-11-14T00:04:46;0.80;;;0.70;;
14209;SDS011;7188;56.070;12.698;2022-11-14T00:07:12;0.87;;;0.80;;
14209;SDS011;7188;56.070;12.698;2022-11-14T00:09:38;1.77;;;0.90;;
14209;SDS011;7188;56.070;12.698;2022-11-14T00:12:06;0.87;;;0.70;;
14209;SDS011;7188;56.070;12.698;2022-11-14T00:14:33;0.77;;;0.77;;
14209;SDS011;7188;56.070;12.698;2022-11-14T00:16:58;1.60;;;0.80;;
14209;SDS011;7188;56.070;12.698;2022-11-14T00:19:24;1.73;;;0.90;;
14209;SDS011;7188;56.070;12.698;2022-11-14T00:21:49;0.90;;;0.90;;
14209;SDS011;7188;56.070;12.698;2022-11-14T00:24:17;0.60;;;0.60;;
14209;SDS011;7188;56.070;12.698;2022-11-14T00:26:43;1.20;;;1.10;;
14209;SDS011;7188;56.070;12.698;2022-11-14T00:29:12;1.30;;;1.20;;
14209;SDS011;7188;56.070;12.698;2022-11-14T00:31:38;1.10;;;0.83;;
14209;SDS011;7188;56.070;12.698;2022-11-14T00:34:04;1.73;;;0.80;;
14209;SDS011;7188;56.070;12.698;2022-11-14T00:36:30;0.70;;;0.70;;
14209;SDS011;7188;56.070;12.698;2022-11-14T00:38:55;2.70;;;1.13;;
14209;SDS011;7188;56.070;12.698;2022-11-14T00:41:21;1.20;;;0.73;;
14209;SDS011;7188;56.070;12.698;2022-11-14T00:43:46;1.07;;;0.80;;
14209;SDS011;7188;56.070;12.698;2022-11-14T00:46:12;1.50;;;1.40;;
14209;SDS011;7188;56.070;12.698;2022-11-14T00:48:38;1.27;;;1.17;;
14209;SDS011;7188;56.070;12.698;2022-11-14T00:51:04;1.70;;;1.60;;
14209;SDS011;7188;56.070;12.698;2022-11-14T00:53:29;2.40;;;1.63;;
14209;SDS011;7188;56.070;12.698;2022-11-14T00:55:55;0.90;;;0.90;;
14209;SDS011;7188;56.070;12.698;2022-11-14T00:58:21;0.80;;;0.80;;
14209;SDS011;7188;56.070;12.698;2022-11-14T01:00:47;0.60;;;0.60;;
14209;SDS011;7188;56.070;12.698;2022-11-14T01:03:12;1.10;;;0.87;;
14209;SDS011;7188;56.070;12.698;2022-11-14T01:05:42;0.77;;;0.77;;
14209;SDS011;7188;56.070;12.698;2022-11-14T01:08:12;0.77;;;0.73;;
14209;SDS011;7188;56.070;12.698;2022-11-14T01:10:40;1.07;;;0.80;;
14209;SDS011;7188;56.070;12.698;2022-11-14T01:13:07;1.00;;;1.00;;
14209;SDS011;7188;56.070;12.698;2022-11-14T01:15:33;0.77;;;0.77;;
14209;SDS011;7188;56.070;12.698;2022-11-14T01:18:03;1.10;;;0.97;;
14209;SDS011;7188;56.070;12.698;2022-11-14T01:20:28;1.13;;;1.00;;
14209;SDS011;7188;56.070;12.698;2022-11-14T01:22:54;1.20;;;1.10;;
14209;SDS011;7188;56.070;12.698;2022-11-14T01:25:20;2.57;;;1.13;;
14209;SDS011;7188;56.070;12.698;2022-11-14T01:27:45;1.07;;;0.93;;
14209;SDS011;7188;56.070;12.698;2022-11-14T01:33:02;1.23;;;0.67;;
14209;SDS011;7188;56.070;12.698;2022-11-14T01:35:29;0.93;;;0.93;;
14209;SDS011;7188;56.070;12.698;2022-11-14T01:37:55;1.40;;;0.70;;
14209;SDS011;7188;56.070;12.698;2022-11-14T01:40:21;0.77;;;0.77;;
14209;SDS011;7188;56.070;12.698;2022-11-14T01:45:56;1.00;;;0.90;;
14209;SDS011;7188;56.070;12.698;2022-11-14T01:54:02;2.10;;;0.97;;
14209;SDS011;7188;56.070;12.698;2022-11-14T01:56:35;1.03;;;1.03;;
14209;SDS011;7188;56.070;12.698;2022-11-14T01:59:06;1.60;;;1.00;;
14209;SDS011;7188;56.070;12.698;2022-11-14T02:01:45;0.97;;;0.87;;
14209;SDS011;7188;56.070;12.698;2022-11-14T02:04:22;0.97;;;0.97;;
14209;SDS011;7188;56.070;12.698;2022-11-14T02:06:52;0.90;;;0.90;;
14209;SDS011;7188;56.070;12.698;2022-11-14T02:09:24;1.80;;;1.00;;
14209;SDS011;7188;56.070;12.698;2022-11-14T02:11:52;1.33;;;1.00;;
14209;SDS011;7188;56.070;12.698;2022-11-14T02:14:19;1.17;;;1.17;;
14209;SDS011;7188;56.070;12.698;2022-11-14T02:16:45;1.73;;;1.63;;
14209;SDS011;7188;56.070;12.698;2022-11-14T02:19:13;2.03;;;1.63;;
14209;SDS011;7188;56.070;12.698;2022-11-14T02:21:39;2.70;;;1.20;;
14209;SDS011;7188;56.070;12.698;2022-11-14T02:24:08;1.50;;;1.40;;
14209;SDS011;7188;56.070;12.698;2022-11-14T02:26:35;1.73;;;1.60;;
14209;SDS011;7188;56.070;12.698;2022-11-14T02:29:01;2.40;;;2.10;;
14209;SDS011;7188;56.070;12.698;2022-11-14T02:31:28;3.07;;;2.17;;
14209;SDS011;7188;56.070;12.698;2022-11-14T02:33:53;2.07;;;1.93;;
14209;SDS011;7188;56.070;12.698;2022-11-14T02:36:19;2.20;;;2.10;;
14209;SDS011;7188;56.070;12.698;2022-11-14T02:38:45;2.27;;;2.17;;
14209;SDS011;7188;56.070;12.698;2022-11-14T02:41:10;2.57;;;2.30;;
14209;SDS011;7188;56.070;12.698;2022-11-14T02:43:36;2.07;;;1.97;;
14209;SDS011;7188;56.070;12.698;2022-11-14T02:46:02;2.20;;;2.10;;
14209;SDS011;7188;56.070;12.698;2022-11-14T02:48:27;2.60;;;2.40;;
14209;SDS011;7188;56.070;12.698;2022-11-14T02:50:53;2.00;;;1.90;;
14209;SDS011;7188;56.070;12.698;2022-11-14T02:53:18;4.37;;;2.80;;
14209;SDS011;7188;56.070;12.698;2022-11-14T02:55:44;3.33;;;3.03;;
14209;SDS011;7188;56.070;12.698;2022-11-14T02:58:09;2.30;;;2.10;;
14209;SDS011;7188;56.070;12.698;2022-11-14T03:00:35;3.53;;;3.00;;
14209;SDS011;7188;56.070;12.698;2022-11-14T03:03:01;3.80;;;3.50;;
14209;SDS011;7188;56.070;12.698;2022-11-14T03:05:26;2.93;;;2.73;;
14209;SDS011;7188;56.070;12.698;2022-11-14T03:07:55;3.43;;;3.23;;
14209;SDS011;7188;56.070;12.698;2022-11-14T03:10:21;3.30;;;3.00;;
14209;SDS011;7188;56.070;12.698;2022-11-14T03:12:47;3.67;;;3.37;;
14209;SDS011;7188;56.070;12.698;2022-11-14T03:15:20;3.97;;;3.33;;
14209;SDS011;7188;56.070;12.698;2022-11-14T03:17:47;4.67;;;3.30;;
14209;SDS011;7188;56.070;12.698;2022-11-14T03:20:12;3.97;;;3.20;;
14209;SDS011;7188;56.070;12.698;2022-11-14T03:22:38;4.20;;;3.90;;
14209;SDS011;7188;56.070;12.698;2022-11-14T03:25:04;7.23;;;4.47;;
14209;SDS011;7188;56.070;12.698;2022-11-14T03:27:29;3.97;;;3.67;;
14209;SDS011;7188;56.070;12.698;2022-11-14T03:29:55;4.27;;;3.87;;
14209;SDS011;7188;56.070;12.698;2022-11-14T03:32:21;4.20;;;3.80;;
14209;SDS011;7188;56.070;12.698;2022-11-14T03:34:46;4.63;;;4.23;;
14209;SDS011;7188;56.070;12.698;2022-11-14T03:37:12;4.13;;;3.77;;
14209;SDS011;7188;56.070;12.698;2022-11-14T03:39:37;5.10;;;3.57;;
14209;SDS011;7188;56.070;12.698;2022-11-14T03:42:03;4.57;;;3.60;;
14209;SDS011;7188;56.070;12.698;2022-11-14T03:44:29;4.03;;;3.73;;
14209;SDS011;7188;56.070;12.698;2022-11-14T03:46:54;2.50;;;2.40;;
14209;SDS011;7188;56.070;12.698;2022-11-14T03:49:20;2.93;;;2.73;;
14209;SDS011;7188;56.070;12.698;2022-11-14T03:51:45;2.97;;;2.43;;
14209;SDS011;7188;56.070;12.698;2022-11-14T03:54:11;2.00;;;1.90;;
14209;SDS011;7188;56.070;12.698;2022-11-14T03:56:36;2.30;;;2.13;;
14209;SDS011;7188;56.070;12.698;2022-11-14T03:59:02;1.70;;;1.60;;
14209;SDS011;7188;56.070;12.698;2022-11-14T04:01:28;2.00;;;1.83;;
14209;SDS011;7188;56.070;12.698;2022-11-14T04:03:54;1.60;;;1.50;;
14209;SDS011;7188;56.070;12.698;2022-11-14T04:06:20;1.23;;;1.23;;
14209;SDS011;7188;56.070;12.698;2022-11-14T04:08:45;1.30;;;1.20;;
14209;SDS011;7188;56.070;12.698;2022-11-14T04:11:11;1.27;;;1.17;;
14209;SDS011;7188;56.070;12.698;2022-11-14T04:13:37;1.23;;;1.07;;
14209;SDS011;7188;56.070;12.698;2022-11-14T04:16:02;1.63;;;1.37;;
14209;SDS011;7188;56.070;12.698;2022-11-14T04:18:28;1.00;;;1.00;;
14209;SDS011;7188;56.070;12.698;2022-11-14T04:20:54;1.00;;;1.00;;
14209;SDS011;7188;56.070;12.698;2022-11-14T04:23:19;1.53;;;1.43;;
14209;SDS011;7188;56.070;12.698;2022-11-14T04:25:45;1.07;;;1.00;;
14209;SDS011;7188;56.070;12.698;2022-11-14T04:28:11;1.33;;;1.10;;
14209;SDS011;7188;56.070;12.698;2022-11-14T04:30:38;1.33;;;1.33;;
14209;SDS011;7188;56.070;12.698;2022-11-14T04:33:04;0.97;;;0.97;;
14209;SDS011;7188;56.070;12.698;2022-11-14T04:35:29;1.23;;;1.13;;
14209;SDS011;7188;56.070;12.698;2022-11-14T04:37:55;1.20;;;1.10;;
14209;SDS011;7188;56.070;12.698;2022-11-14T04:40:21;1.90;;;1.30;;
14209;SDS011;7188;56.070;12.698;2022-11-14T04:42:47;1.50;;;1.40;;
14209;SDS011;7188;56.070;12.698;2022-11-14T04:45:12;1.30;;;1.20;;
14209;SDS011;7188;56.070;12.698;2022-11-14T04:47:39;2.50;;;1.60;;
14209;SDS011;7188;56.070;12.698;2022-11-14T04:50:06;1.20;;;1.10;;
14209;SDS011;7188;56.070;12.698;2022-11-14T04:52:32;1.80;;;1.67;;
14209;SDS011;7188;56.070;12.698;2022-11-14T04:54:58;1.63;;;1.47;;
14209;SDS011;7188;56.070;12.698;2022-11-14T04:57:23;3.33;;;1.77;;
14209;SDS011;7188;56.070;12.698;2022-11-14T04:59:49;2.43;;;2.30;;
14209;SDS011;7188;56.070;12.698;2022-11-14T05:02:15;2.17;;;2.07;;
14209;SDS011;7188;56.070;12.698;2022-11-14T05:04:41;1.83;;;1.73;;
14209;SDS011;7188;56.070;12.698;2022-11-14T05:07:08;2.47;;;1.80;;
14209;SDS011;7188;56.070;12.698;2022-11-14T05:09:34;2.40;;;2.20;;
14209;SDS011;7188;56.070;12.698;2022-11-14T05:12:00;2.57;;;2.37;;
14209;SDS011;7188;56.070;12.698;2022-11-14T05:14:27;2.63;;;2.43;;
14209;SDS011;7188;56.070;12.698;2022-11-14T05:16:52;3.03;;;2.77;;
14209;SDS011;7188;56.070;12.698;2022-11-14T05:19:18;2.63;;;2.43;;
14209;SDS011;7188;56.070;12.698;2022-11-14T05:21:44;2.60;;;2.50;;
14209;SDS011;7188;56.070;12.698;2022-11-14T05:24:09;3.50;;;3.17;;
14209;SDS011;7188;56.070;12.698;2022-11-14T05:26:35;2.47;;;2.30;;
14209;SDS011;7188;56.070;12.698;2022-11-14T05:29:00;4.40;;;3.20;;
14209;SDS011;7188;56.070;12.698;2022-11-14T05:31:26;3.40;;;3.10;;
14209;SDS011;7188;56.070;12.698;2022-11-14T05:33:51;4.27;;;3.60;;
14209;SDS011;7188;56.070;12.698;2022-11-14T05:36:17;4.67;;;4.07;;
14209;SDS011;7188;56.070;12.698;2022-11-14T05:38:43;3.47;;;3.10;;
14209;SDS011;7188;56.070;12.698;2022-11-14T05:41:17;3.63;;;3.33;;
14209;SDS011;7188;56.070;12.698;2022-11-14T05:43:44;4.17;;;3.00;;
14209;SDS011;7188;56.070;12.698;2022-11-14T05:46:11;3.97;;;3.67;;
14209;SDS011;7188;56.070;12.698;2022-11-14T05:48:38;5.13;;;4.00;;
14209;SDS011;7188;56.070;12.698;2022-11-14T05:51:04;5.27;;;3.90;;
14209;SDS011;7188;56.070;12.698;2022-11-14T05:53:31;4.27;;;3.73;;
14209;SDS011;7188;56.070;12.698;2022-11-14T05:56:01;4.67;;;3.50;;
14209;SDS011;7188;56.070;12.698;2022-11-14T05:58:32;4.07;;;3.77;;
14209;SDS011;7188;56.070;12.698;2022-11-14T06:01:05;3.90;;;3.50;;
14209;SDS011;7188;56.070;12.698;2022-11-14T06:03:33;4.90;;;3.60;;
14209;SDS011;7188;56.070;12.698;2022-11-14T06:06:00;4.37;;;3.27;;
14209;SDS011;7188;56.070;12.698;2022-11-14T06:08:28;4.80;;;4.37;;
14209;SDS011;7188;56.070;12.698;2022-11-14T06:10:54;3.43;;;3.20;;
14209;SDS011;7188;56.070;12.698;2022-11-14T06:13:20;3.90;;;3.10;;
14209;SDS011;7188;56.070;12.698;2022-11-14T06:15:48;4.20;;;3.67;;
14209;SDS011;7188;56.070;12.698;2022-11-14T06:18:14;4.10;;;3.27;;
14209;SDS011;7188;56.070;12.698;2022-11-14T06:20:39;3.80;;;3.23;;
14209;SDS011;7188;56.070;12.698;2022-11-14T06:23:05;4.00;;;3.70;;
14209;SDS011;7188;56.070;12.698;2022-11-14T06:25:31;4.07;;;3.67;;
14209;SDS011;7188;56.070;12.698;2022-11-14T06:27:57;3.10;;;2.90;;
14209;SDS011;7188;56.070;12.698;2022-11-14T06:30:23;4.33;;;4.03;;
14209;SDS011;7188;56.070;12.698;2022-11-14T06:32:49;4.70;;;4.10;;
14209;SDS011;7188;56.070;12.698;2022-11-14T06:35:21;4.40;;;3.73;;
14209;SDS011;7188;56.070;12.698;2022-11-14T06:37:46;4.50;;;4.03;;
14209;SDS011;7188;56.070;12.698;2022-11-14T06:40:12;4.23;;;3.87;;
14209;SDS011;7188;56.070;12.698;2022-11-14T06:42:38;4.57;;;3.73;;
14209;SDS011;7188;56.070;12.698;2022-11-14T06:45:03;4.20;;;3.80;;
14209;SDS011;7188;56.070;12.698;2022-11-14T06:47:29;4.17;;;3.80;;
14209;SDS011;7188;56.070;12.698;2022-11-14T06:49:55;5.07;;;4.67;;
14209;SDS011;7188;56.070;12.698;2022-11-14T06:52:20;5.63;;;3.83;;
14209;SDS011;7188;56.070;12.698;2022-11-14T06:54:47;4.30;;;3.57;;
14209;SDS011;7188;56.070;12.698;2022-11-14T06:57:12;6.00;;;4.37;;
14209;SDS011;7188;56.070;12.698;2022-11-14T06:59:38;4.37;;;3.97;;
14209;SDS011;7188;56.070;12.698;2022-11-14T07:02:03;4.37;;;3.97;;
14209;SDS011;7188;56.070;12.698;2022-11-14T07:04:29;5.70;;;4.13;;
14209;SDS011;7188;56.070;12.698;2022-11-14T07:06:54;5.90;;;4.20;;
14209;SDS011;7188;56.070;12.698;2022-11-14T07:09:20;5.50;;;4.63;;
14209;SDS011;7188;56.070;12.698;2022-11-14T07:11:45;6.90;;;4.60;;
14209;SDS011;7188;56.070;12.698;2022-11-14T07:14:11;4.70;;;3.83;;
14209;SDS011;7188;56.070;12.698;2022-11-14T07:16:37;4.63;;;4.17;;
14209;SDS011;7188;56.070;12.698;2022-11-14T07:19:04;4.33;;;3.93;;
14209;SDS011;7188;56.070;12.698;2022-11-14T07:21:30;4.37;;;3.97;;
14209;SDS011;7188;56.070;12.698;2022-11-14T07:23:58;5.40;;;4.50;;
14209;SDS011;7188;56.070;12.698;2022-11-14T07:26:24;4.67;;;4.27;;
14209;SDS011;7188;56.070;12.698;2022-11-14T07:28:50;4.90;;;4.10;;
14209;SDS011;7188;56.070;12.698;2022-11-14T07:31:16;4.93;;;4.50;;
14209;SDS011;7188;56.070;12.698;2022-11-14T07:33:43;5.37;;;4.47;;
14209;SDS011;7188;56.070;12.698;2022-11-14T07:36:09;5.70;;;4.83;;
14209;SDS011;7188;56.070;12.698;2022-11-14T07:38:36;6.23;;;4.60;;
14209;SDS011;7188;56.070;12.698;2022-11-14T07:41:06;7.00;;;5.33;;
14209;SDS011;7188;56.070;12.698;2022-11-14T07:43:36;5.10;;;4.20;;
14209;SDS011;7188;56.070;12.698;2022-11-14T07:46:03;7.07;;;5.13;;
14209;SDS011;7188;56.070;12.698;2022-11-14T07:48:31;5.60;;;5.10;;
14209;SDS011;7188;56.070;12.698;2022-11-14T07:51:02;6.33;;;4.53;;
14209;SDS011;7188;56.070;12.698;2022-11-14T07:53:30;6.13;;;5.50;;
14209;SDS011;7188;56.070;12.698;2022-11-14T07:55:56;5.63;;;4.70;;
14209;SDS011;7188;56.070;12.698;2022-11-14T07:58:25;6.27;;;5.00;;
14209;SDS011;7188;56.070;12.698;2022-11-14T08:00:51;8.37;;;5.77;;
14209;SDS011;7188;56.070;12.698;2022-11-14T08:03:17;5.53;;;4.93;;
14209;SDS011;7188;56.070;12.698;2022-11-14T08:05:42;8.80;;;6.17;;
14209;SDS011;7188;56.070;12.698;2022-11-14T08:08:08;7.60;;;5.37;;
14209;SDS011;7188;56.070;12.698;2022-11-14T08:10:33;6.43;;;5.80;;
14209;SDS011;7188;56.070;12.698;2022-11-14T08:12:59;6.40;;;5.60;;
14209;SDS011;7188;56.070;12.698;2022-11-14T08:15:27;6.60;;;5.87;;
14209;SDS011;7188;56.070;12.698;2022-11-14T08:17:57;8.17;;;6.03;;
14209;SDS011;7188;56.070;12.698;2022-11-14T08:20:23;7.47;;;6.57;;
14209;SDS011;7188;56.070;12.698;2022-11-14T08:22:50;7.33;;;5.90;;
14209;SDS011;7188;56.070;12.698;2022-11-14T08:25:16;8.23;;;6.67;;
14209;SDS011;7188;56.070;12.698;2022-11-14T08:27:42;8.70;;;6.50;;
14209;SDS011;7188;56.070;12.698;2022-11-14T08:30:07;10.43;;;7.03;;
14209;SDS011;7188;56.070;12.698;2022-11-14T08:32:33;7.83;;;6.23;;
14209;SDS011;7188;56.070;12.698;2022-11-14T08:35:02;8.03;;;6.73;;
14209;SDS011;7188;56.070;12.698;2022-11-14T08:37:28;8.47;;;7.20;;
14209;SDS011;7188;56.070;12.698;2022-11-14T08:39:54;7.00;;;6.30;;
14209;SDS011;7188;56.070;12.698;2022-11-14T08:42:19;10.23;;;8.13;;
14209;SDS011;7188;56.070;12.698;2022-11-14T08:44:45;10.37;;;7.40;;
14209;SDS011;7188;56.070;12.698;2022-11-14T08:47:10;10.23;;;7.17;;
14209;SDS011;7188;56.070;12.698;2022-11-14T08:49:36;8.70;;;6.33;;
14209;SDS011;7188;56.070;12.698;2022-11-14T08:52:11;9.07;;;7.17;;
14209;SDS011;7188;56.070;12.698;2022-11-14T08:54:36;7.90;;;6.83;;
14209;SDS011;7188;56.070;12.698;2022-11-14T08:57:02;7.50;;;6.03;;
14209;SDS011;7188;56.070;12.698;2022-11-14T08:59:29;8.77;;;6.77;;
14209;SDS011;7188;56.070;12.698;2022-11-14T09:01:55;9.33;;;6.37;;
14209;SDS011;7188;56.070;12.698;2022-11-14T09:04:20;7.97;;;6.70;;
14209;SDS011;7188;56.070;12.698;2022-11-14T09:06:46;9.17;;;7.03;;
14209;SDS011;7188;56.070;12.698;2022-11-14T09:09:12;7.80;;;6.57;;
14209;SDS011;7188;56.070;12.698;2022-11-14T09:11:37;13.17;;;7.17;;
14209;SDS011;7188;56.070;12.698;2022-11-14T09:14:04;7.53;;;6.73;;
14209;SDS011;7188;56.070;12.698;2022-11-14T09:16:30;7.63;;;6.17;;
14209;SDS011;7188;56.070;12.698;2022-11-14T09:18:57;7.50;;;5.93;;
14209;SDS011;7188;56.070;12.698;2022-11-14T09:21:23;9.20;;;7.00;;
14209;SDS011;7188;56.070;12.698;2022-11-14T09:23:50;7.73;;;6.93;;
14209;SDS011;7188;56.070;12.698;2022-11-14T09:26:15;8.17;;;6.77;;
14209;SDS011;7188;56.070;12.698;2022-11-14T09:28:42;8.83;;;6.77;;
14209;SDS011;7188;56.070;12.698;2022-11-14T09:31:09;8.13;;;7.07;;
14209;SDS011;7188;56.070;12.698;2022-11-14T09:33:35;8.13;;;6.63;;
14209;SDS011;7188;56.070;12.698;2022-11-14T09:36:03;8.37;;;6.97;;
14209;SDS011;7188;56.070;12.698;2022-11-14T09:38:30;10.60;;;7.83;;
14209;SDS011;7188;56.070;12.698;2022-11-14T09:40:59;9.60;;;7.10;;
14209;SDS011;7188;56.070;12.698;2022-11-14T09:46:33;10.47;;;7.93;;
14209;SDS011;7188;56.070;12.698;2022-11-14T09:51:56;11.23;;;9.13;;
14209;SDS011;7188;56.070;12.698;2022-11-14T09:54:28;9.03;;;7.80;;
14209;SDS011;7188;56.070;12.698;2022-11-14T09:57:03;10.30;;;8.37;;
14209;SDS011;7188;56.070;12.698;2022-11-14T09:59:43;11.07;;;8.87;;
14209;SDS011;7188;56.070;12.698;2022-11-14T10:13:16;15.40;;;9.53;;
14209;SDS011;7188;56.070;12.698;2022-11-14T10:16:39;11.13;;;9.07;;
14209;SDS011;7188;56.070;12.698;2022-11-14T10:27:37;10.13;;;8.10;;
14209;SDS011;7188;56.070;12.698;2022-11-14T10:32:46;12.57;;;9.70;;
14209;SDS011;7188;56.070;12.698;2022-11-14T10:35:22;11.93;;;8.93;;
14209;SDS011;7188;56.070;12.698;2022-11-14T10:37:55;10.10;;;8.43;;
14209;SDS011;7188;56.070;12.698;2022-11-14T10:40:29;13.93;;;9.73;;
14209;SDS011;7188;56.070;12.698;2022-11-14T10:43:12;11.53;;;9.33;;
14209;SDS011;7188;56.070;12.698;2022-11-14T10:45:57;12.60;;;9.00;;
14209;SDS011;7188;56.070;12.698;2022-11-14T10:48:30;14.67;;;10.70;;
14209;SDS011;7188;56.070;12.698;2022-11-14T10:56:24;13.40;;;10.00;;
14209;SDS011;7188;56.070;12.698;2022-11-14T10:58:50;16.23;;;10.40;;
14209;SDS011;7188;56.070;12.698;2022-11-14T11:01:32;13.07;;;9.30;;
14209;SDS011;7188;56.070;12.698;2022-11-14T11:04:05;12.60;;;10.70;;
14209;SDS011;7188;56.070;12.698;2022-11-14T11:06:49;15.63;;;11.00;;
14209;SDS011;7188;56.070;12.698;2022-11-14T11:09:18;13.63;;;10.57;;
14209;SDS011;7188;56.070;12.698;2022-11-14T11:12:03;11.83;;;9.47;;
14209;SDS011;7188;56.070;12.698;2022-11-14T11:14:30;18.30;;;11.17;;
14209;SDS011;7188;56.070;12.698;2022-11-14T11:19:52;13.87;;;10.17;;
14209;SDS011;7188;56.070;12.698;2022-11-14T11:22:25;13.87;;;11.13;;
14209;SDS011;7188;56.070;12.698;2022-11-14T11:25:00;13.10;;;10.40;;
14209;SDS011;7188;56.070;12.698;2022-11-14T11:27:27;12.60;;;9.83;;
14209;SDS011;7188;56.070;12.698;2022-11-14T11:30:01;13.40;;;10.27;;
14209;SDS011;7188;56.070;12.698;2022-11-14T11:32:49;15.70;;;11.10;;
14209;SDS011;7188;56.070;12.698;2022-11-14T11:35:15;14.60;;;11.07;;
14209;SDS011;7188;56.070;12.698;2022-11-14T11:37:43;13.00;;;9.50;;
14209;SDS011;7188;56.070;12.698;2022-11-14T11:40:20;17.03;;;10.57;;
14209;SDS011;7188;56.070;12.698;2022-11-14T11:45:28;11.80;;;9.13;;
14209;SDS011;7188;56.070;12.698;2022-11-14T11:47:58;12.20;;;9.17;;
14209;SDS011;7188;56.070;12.698;2022-11-14T11:50:26;9.17;;;7.67;;
14209;SDS011;7188;56.070;12.698;2022-11-14T11:55:26;8.10;;;6.57;;
14209;SDS011;7188;56.070;12.698;2022-11-14T12:01:07;7.67;;;6.03;;
14209;SDS011;7188;56.070;12.698;2022-11-14T12:03:36;7.67;;;6.20;;
14209;SDS011;7188;56.070;12.698;2022-11-14T12:06:08;6.53;;;5.57;;
14209;SDS011;7188;56.070;12.698;2022-11-14T12:11:25;7.10;;;5.57;;
14209;SDS011;7188;56.070;12.698;2022-11-14T12:16:38;7.37;;;6.10;;
14209;SDS011;7188;56.070;12.698;2022-11-14T12:31:09;6.97;;;5.83;;
14209;SDS011;7188;56.070;12.698;2022-11-14T12:33:41;10.30;;;7.67;;
14209;SDS011;7188;56.070;12.698;2022-11-14T12:36:12;8.67;;;6.43;;
14209;SDS011;7188;56.070;12.698;2022-11-14T12:38:42;10.10;;;6.70;;
14209;SDS011;7188;56.070;12.698;2022-11-14T12:41:11;9.20;;;6.60;;
14209;SDS011;7188;56.070;12.698;2022-11-14T12:55:51;7.27;;;6.23;;
14209;SDS011;7188;56.070;12.698;2022-11-14T13:06:04;8.00;;;6.57;;
14209;SDS011;7188;56.070;12.698;2022-11-14T13:08:51;8.73;;;6.30;;
14209;SDS011;7188;56.070;12.698;2022-11-14T13:14:14;9.50;;;6.63;;
14209;SDS011;7188;56.070;12.698;2022-11-14T13:19:59;6.27;;;5.47;;
14209;SDS011;7188;56.070;12.698;2022-11-14T13:22:44;5.63;;;4.87;;
14209;SDS011;7188;56.070;12.698;2022-11-14T13:27:40;7.27;;;5.60;;
14209;SDS011;7188;56.070;12.698;2022-11-14T13:30:06;5.43;;;4.93;;
14209;SDS011;7188;56.070;12.698;2022-11-14T13:43:36;7.30;;;5.13;;
14209;SDS011;7188;56.070;12.698;2022-11-14T13:52:04;7.20;;;5.77;;
14209;SDS011;7188;56.070;12.698;2022-11-14T13:54:30;7.00;;;5.30;;
14209;SDS011;7188;56.070;12.698;2022-11-14T14:04:44;5.97;;;4.87;;
14209;SDS011;7188;56.070;12.698;2022-11-14T14:10:08;7.57;;;5.90;;
14209;SDS011;7188;56.070;12.698;2022-11-14T14:12:55;5.93;;;5.03;;
14209;SDS011;7188;56.070;12.698;2022-11-14T14:15:28;6.67;;;5.97;;
14209;SDS011;7188;56.070;12.698;2022-11-14T14:18:03;6.13;;;5.53;;
14209;SDS011;7188;56.070;12.698;2022-11-14T14:20:42;7.00;;;5.83;;
14209;SDS011;7188;56.070;12.698;2022-11-14T14:26:13;6.43;;;5.80;;
14209;SDS011;7188;56.070;12.698;2022-11-14T14:31:48;5.60;;;5.10;;
14209;SDS011;7188;56.070;12.698;2022-11-14T14:36:54;5.67;;;4.80;;
14209;SDS011;7188;56.070;12.698;2022-11-14T14:39:22;5.80;;;5.30;;
14209;SDS011;7188;56.070;12.698;2022-11-14T14:41:49;6.40;;;5.70;;
14209;SDS011;7188;56.070;12.698;2022-11-14T14:44:26;7.10;;;5.53;;
14209;SDS011;7188;56.070;12.698;2022-11-14T14:49:58;6.17;;;5.37;;
14209;SDS011;7188;56.070;12.698;2022-11-14T14:52:29;6.87;;;5.30;;
14209;SDS011;7188;56.070;12.698;2022-11-14T14:54:57;6.40;;;5.23;;
14209;SDS011;7188;56.070;12.698;2022-11-14T14:57:26;5.90;;;5.23;;
14209;SDS011;7188;56.070;12.698;2022-11-14T14:59:59;9.07;;;5.13;;
14209;SDS011;7188;56.070;12.698;2022-11-14T15:02:32;6.70;;;4.70;;
14209;SDS011;7188;56.070;12.698;2022-11-14T15:04:58;5.70;;;5.00;;
14209;SDS011;7188;56.070;12.698;2022-11-14T15:07:26;5.50;;;4.90;;
14209;SDS011;7188;56.070;12.698;2022-11-14T15:10:00;5.57;;;5.07;;
14209;SDS011;7188;56.070;12.698;2022-11-14T15:12:28;5.93;;;5.27;;
14209;SDS011;7188;56.070;12.698;2022-11-14T15:14:54;6.07;;;5.43;;
14209;SDS011;7188;56.070;12.698;2022-11-14T15:17:22;7.07;;;5.37;;
14209;SDS011;7188;56.070;12.698;2022-11-14T15:19:50;6.40;;;5.80;;
14209;SDS011;7188;56.070;12.698;2022-11-14T15:24:42;6.73;;;5.47;;
14209;SDS011;7188;56.070;12.698;2022-11-14T15:27:26;5.87;;;5.20;;
14209;SDS011;7188;56.070;12.698;2022-11-14T15:29:52;5.53;;;4.90;;
14209;SDS011;7188;56.070;12.698;2022-11-14T15:32:22;5.80;;;4.67;;
14209;SDS011;7188;56.070;12.698;2022-11-14T15:37:36;4.87;;;4.33;;
14209;SDS011;7188;56.070;12.698;2022-11-14T15:40:18;6.17;;;4.90;;
14209;SDS011;7188;56.070;12.698;2022-11-14T15:42:45;6.20;;;4.80;;
14209;SDS011;7188;56.070;12.698;2022-11-14T15:47:46;5.53;;;5.03;;
14209;SDS011;7188;56.070;12.698;2022-11-14T15:52:50;5.00;;;4.50;;
14209;SDS011;7188;56.070;12.698;2022-11-14T15:55:22;5.40;;;4.90;;
14209;SDS011;7188;56.070;12.698;2022-11-14T15:57:48;5.23;;;4.73;;
14209;SDS011;7188;56.070;12.698;2022-11-14T16:00:14;5.50;;;5.00;;
14209;SDS011;7188;56.070;12.698;2022-11-14T16:02:54;5.43;;;4.53;;
14209;SDS011;7188;56.070;12.698;2022-11-14T16:05:28;4.40;;;4.00;;
14209;SDS011;7188;56.070;12.698;2022-11-14T16:07:55;4.90;;;4.43;;
14209;SDS011;7188;56.070;12.698;2022-11-14T16:10:22;5.70;;;5.00;;
14209;SDS011;7188;56.070;12.698;2022-11-14T16:12:49;5.83;;;4.53;;
14209;SDS011;7188;56.070;12.698;2022-11-14T16:15:15;4.23;;;3.83;;
14209;SDS011;7188;56.070;12.698;2022-11-14T16:17:43;5.03;;;4.63;;
14209;SDS011;7188;56.070;12.698;2022-11-14T16:20:14;5.60;;;5.10;;
14209;SDS011;7188;56.070;12.698;2022-11-14T16:22:50;5.23;;;4.67;;
14209;SDS011;7188;56.070;12.698;2022-11-14T16:25:27;6.30;;;5.10;;
14209;SDS011;7188;56.070;12.698;2022-11-14T16:27:54;4.63;;;4.23;;
14209;SDS011;7188;56.070;12.698;2022-11-14T16:30:21;5.30;;;4.50;;
14209;SDS011;7188;56.070;12.698;2022-11-14T16:32:48;4.93;;;4.13;;
14209;SDS011;7188;56.070;12.698;2022-11-14T16:35:15;5.50;;;4.80;;
14209;SDS011;7188;56.070;12.698;2022-11-14T16:37:45;5.47;;;4.97;;
14209;SDS011;7188;56.070;12.698;2022-11-14T16:42:44;4.50;;;4.10;;
14209;SDS011;7188;56.070;12.698;2022-11-14T16:45:10;4.17;;;3.87;;
14209;SDS011;7188;56.070;12.698;2022-11-14T16:47:36;5.30;;;4.80;;
14209;SDS011;7188;56.070;12.698;2022-11-14T16:50:03;4.57;;;4.17;;
14209;SDS011;7188;56.070;12.698;2022-11-14T16:52:28;6.17;;;5.47;;
14209;SDS011;7188;56.070;12.698;2022-11-14T16:54:54;4.97;;;4.57;;
14209;SDS011;7188;56.070;12.698;2022-11-14T16:57:20;5.20;;;4.70;;
14209;SDS011;7188;56.070;12.698;2022-11-14T16:59:45;5.17;;;4.17;;
14209;SDS011;7188;56.070;12.698;2022-11-14T17:02:12;4.70;;;4.13;;
14209;SDS011;7188;56.070;12.698;2022-11-14T17:04:39;7.23;;;5.23;;
14209;SDS011;7188;56.070;12.698;2022-11-14T17:07:06;5.10;;;4.60;;
14209;SDS011;7188;56.070;12.698;2022-11-14T17:09:33;5.13;;;4.73;;
14209;SDS011;7188;56.070;12.698;2022-11-14T17:11:58;4.97;;;4.50;;
14209;SDS011;7188;56.070;12.698;2022-11-14T17:14:24;9.90;;;7.73;;
14209;SDS011;7188;56.070;12.698;2022-11-14T17:16:49;8.67;;;6.70;;
14209;SDS011;7188;56.070;12.698;2022-11-14T17:19:15;9.23;;;5.80;;
14209;SDS011;7188;56.070;12.698;2022-11-14T17:21:41;6.07;;;5.47;;
14209;SDS011;7188;56.070;12.698;2022-11-14T17:24:07;8.13;;;5.43;;
14209;SDS011;7188;56.070;12.698;2022-11-14T17:26:33;7.10;;;5.87;;